createdAt,value
2018-09-12T00:00:58.286Z,4.83
2018-09-12T00:03:32.391Z,6.15
2018-09-12T00:06:06.450Z,4.75
2018-09-12T00:08:40.971Z,4.47
2018-09-12T00:11:15.880Z,6.33
2018-09-12T00:13:50.356Z,5.53
2018-09-12T00:16:25.685Z,5.12
2018-09-12T00:18:59.460Z,4.10
2018-09-12T00:21:34.198Z,4.67
2018-09-12T00:24:08.536Z,5.78
2018-09-12T00:26:42.764Z,5.40
2018-09-12T00:29:17.162Z,6.30
2018-09-12T00:31:51.014Z,4.47
2018-09-12T00:34:25.467Z,5.65
2018-09-12T00:37:00.155Z,5.25
2018-09-12T00:39:34.847Z,5.12
2018-09-12T00:42:09.663Z,6.17
2018-09-12T00:44:43.962Z,6.17
2018-09-12T00:47:18.094Z,4.25
2018-09-12T00:49:53.105Z,6.28
2018-09-12T00:52:27.104Z,3.90
2018-09-12T00:55:01.299Z,4.70
2018-09-12T00:57:35.296Z,5.50
2018-09-12T01:00:09.331Z,4.50
2018-09-12T01:02:44.056Z,4.70
2018-09-12T01:05:18.355Z,3.90
2018-09-12T01:07:53.709Z,4.70
2018-09-12T01:10:28.009Z,4.00
2018-09-12T01:13:02.451Z,3.60
2018-09-12T01:15:36.978Z,3.83
2018-09-12T01:18:16.721Z,3.85
2018-09-12T01:20:51.535Z,4.20
2018-09-12T01:23:26.230Z,3.25
2018-09-12T01:26:00.322Z,4.37
2018-09-12T01:28:34.741Z,5.72
2018-09-12T01:31:09.671Z,4.30
2018-09-12T01:33:43.594Z,4.45
2018-09-12T01:36:17.712Z,5.37
2018-09-12T01:38:51.746Z,3.92
2018-09-12T01:41:26.476Z,8.48
2018-09-12T01:44:01.607Z,4.35
2018-09-12T01:46:36.371Z,5.60
2018-09-12T01:49:14.740Z,6.55
2018-09-12T01:51:49.805Z,3.80
2018-09-12T01:54:23.941Z,3.85
2018-09-12T01:56:57.989Z,3.62
2018-09-12T01:59:32.496Z,5.42
2018-09-12T02:02:06.805Z,4.28
2018-09-12T02:04:41.424Z,4.25
2018-09-12T02:07:15.405Z,7.42
2018-09-12T02:09:49.394Z,5.12
2018-09-12T02:12:23.561Z,4.03
2018-09-12T02:14:58.664Z,4.72
2018-09-12T02:17:32.783Z,4.83
2018-09-12T02:20:07.847Z,4.40
2018-09-12T02:22:41.869Z,4.20
2018-09-12T02:25:16.065Z,4.33
2018-09-12T02:27:50.258Z,4.75
2018-09-12T02:30:24.516Z,4.20
2018-09-12T02:32:59.308Z,4.20
2018-09-12T02:35:35.035Z,3.83
2018-09-12T02:38:09.398Z,3.80
2018-09-12T02:40:43.548Z,5.55
2018-09-12T02:43:18.003Z,4.83
2018-09-12T02:45:51.971Z,4.58
2018-09-12T02:48:26.804Z,4.22
2018-09-12T02:51:01.823Z,4.70
2018-09-12T02:53:36.074Z,5.55
2018-09-12T02:56:10.256Z,4.20
2018-09-12T02:58:44.425Z,4.40
2018-09-12T03:01:19.217Z,3.95
2018-09-12T03:03:53.346Z,4.37
2018-09-12T03:06:27.414Z,4.17
2018-09-12T03:09:02.530Z,5.17
2018-09-12T03:11:37.624Z,4.28
2018-09-12T03:14:13.590Z,3.95
2018-09-12T03:16:47.640Z,5.42
2018-09-12T03:19:21.865Z,8.10
2018-09-12T03:21:55.936Z,5.27
2018-09-12T03:24:30.165Z,3.70
2018-09-12T03:27:04.282Z,4.85
2018-09-12T03:29:38.952Z,6.58
2018-09-12T03:32:13.472Z,5.42
2018-09-12T03:34:47.993Z,3.80
2018-09-12T03:37:22.111Z,5.90
2018-09-12T03:39:56.685Z,4.78
2018-09-12T03:42:31.621Z,5.87
2018-09-12T03:45:06.717Z,5.72
2018-09-12T03:47:40.570Z,5.33
2018-09-12T03:50:14.981Z,4.12
2018-09-12T03:52:49.097Z,4.08
2018-09-12T03:55:24.006Z,4.60
2018-09-12T03:57:58.952Z,4.10
2018-09-12T04:00:33.250Z,4.55
2018-09-12T04:03:07.400Z,5.28
2018-09-12T04:05:41.735Z,5.15
2018-09-12T04:08:15.885Z,4.62
2018-09-12T04:10:49.880Z,5.75
2018-09-12T04:13:24.672Z,4.42
2018-09-12T04:15:58.837Z,4.42
2018-09-12T04:18:32.992Z,4.30
2018-09-12T04:21:07.224Z,4.42
2018-09-12T04:23:41.385Z,4.37
2018-09-12T04:26:15.527Z,4.27
2018-09-12T04:28:49.305Z,4.70
2018-09-12T04:31:23.452Z,4.90
2018-09-12T04:33:58.212Z,5.70
2018-09-12T04:36:33.242Z,4.10
2018-09-12T04:39:09.231Z,4.73
2018-09-12T04:41:42.984Z,5.78
2018-09-12T04:44:16.825Z,7.72
2018-09-12T04:46:50.934Z,6.42
2018-09-12T04:49:25.019Z,4.17
2018-09-12T04:51:59.231Z,4.17
2018-09-12T04:54:33.310Z,5.47
2018-09-12T04:57:08.398Z,5.37
2018-09-12T04:59:42.604Z,5.40
2018-09-12T05:02:16.505Z,5.70
2018-09-12T05:04:50.719Z,4.73
2018-09-12T05:07:25.026Z,6.33
2018-09-12T05:09:58.812Z,8.65
2018-09-12T05:12:33.229Z,9.15
2018-09-12T05:15:07.684Z,7.08
2018-09-12T05:17:43.249Z,8.63
2018-09-12T05:20:17.289Z,6.40
2018-09-12T05:22:51.370Z,4.70
2018-09-12T05:25:25.359Z,6.15
2018-09-12T05:27:59.615Z,5.08
2018-09-12T05:30:34.139Z,4.65
2018-09-12T05:33:08.328Z,6.70
2018-09-12T05:35:43.938Z,10.50
2018-09-12T05:38:17.959Z,5.55
2018-09-12T05:40:52.875Z,4.25
2018-09-12T05:43:27.429Z,5.03
2018-09-12T05:46:01.572Z,4.87
2018-09-12T05:48:35.495Z,6.55
2018-09-12T05:51:09.900Z,5.17
2018-09-12T05:53:43.980Z,5.70
2018-09-12T05:56:18.959Z,6.78
2018-09-12T05:58:54.062Z,4.92
2018-09-12T06:01:28.947Z,6.25
2018-09-12T06:04:03.239Z,6.22
2018-09-12T06:06:38.722Z,6.72
2018-09-12T06:09:12.610Z,6.00
2018-09-12T06:11:48.087Z,7.80
2018-09-12T06:14:22.439Z,6.37
2018-09-12T06:16:57.384Z,6.70
2018-09-12T06:19:31.574Z,5.17
2018-09-12T06:22:05.570Z,4.87
2018-09-12T06:24:40.711Z,7.95
2018-09-12T06:27:14.771Z,8.98
2018-09-12T06:29:49.569Z,4.72
2018-09-12T06:32:23.845Z,6.62
2018-09-12T06:34:58.032Z,6.03
2018-09-12T06:37:31.795Z,3.90
2018-09-12T06:40:06.560Z,5.92
2018-09-12T06:42:40.961Z,5.75
2018-09-12T06:45:16.355Z,4.00
2018-09-12T06:47:50.280Z,4.85
2018-09-12T06:50:24.270Z,10.32
2018-09-12T06:52:58.655Z,6.25
2018-09-12T06:55:32.830Z,5.33
2018-09-12T06:58:06.759Z,4.20
2018-09-12T07:00:41.459Z,4.42
2018-09-12T07:03:15.896Z,5.08
2018-09-12T07:05:50.742Z,6.72
2018-09-12T07:08:24.971Z,5.62
2018-09-12T07:10:59.040Z,5.40
2018-09-12T07:13:33.214Z,7.90
2018-09-12T07:16:08.176Z,5.17
2018-09-12T07:18:43.261Z,6.50
2018-09-12T07:21:17.590Z,4.35
2018-09-12T07:23:51.633Z,4.65
2018-09-12T07:26:25.588Z,6.03
2018-09-12T07:28:59.621Z,7.67
2018-09-12T07:31:33.709Z,9.25
2018-09-12T07:34:08.025Z,6.12
2018-09-12T07:36:43.177Z,5.62
2018-09-12T07:39:17.336Z,6.17
2018-09-12T07:41:52.070Z,4.53
2018-09-12T07:44:26.350Z,7.10
2018-09-12T07:47:00.230Z,5.92
2018-09-12T07:49:34.358Z,5.28
2018-09-12T07:52:08.445Z,5.95
2018-09-12T07:54:42.851Z,8.93
2018-09-12T07:57:17.210Z,5.45
2018-09-12T07:59:51.303Z,6.33
2018-09-12T08:02:25.741Z,7.53
2018-09-12T08:05:00.397Z,5.05
2018-09-12T08:07:34.692Z,5.95
2018-09-12T08:10:08.820Z,7.17
2018-09-12T08:12:42.983Z,7.55
2018-09-12T08:15:17.006Z,8.58
2018-09-12T08:17:51.657Z,7.35
2018-09-12T08:20:25.855Z,7.80
2018-09-12T08:23:00.240Z,6.80
2018-09-12T08:25:35.305Z,6.80
2018-09-12T08:28:10.081Z,6.30
2018-09-12T08:30:44.796Z,8.18
2018-09-12T08:33:18.981Z,7.03
2018-09-12T08:35:53.022Z,7.12
2018-09-12T08:38:27.484Z,8.23
2018-09-12T08:41:02.174Z,8.35
2018-09-12T08:43:36.665Z,6.22
2018-09-12T08:46:10.849Z,7.42
2018-09-12T08:48:45.680Z,5.78
2018-09-12T08:51:19.706Z,5.00
2018-09-12T08:53:53.748Z,5.58
2018-09-12T08:56:28.031Z,6.00
2018-09-12T08:59:02.600Z,5.05
2018-09-12T09:01:36.689Z,6.78
2018-09-12T09:04:11.215Z,6.20
2018-09-12T09:06:45.054Z,7.67
2018-09-12T09:09:19.595Z,4.28
2018-09-12T09:11:53.947Z,5.50
2018-09-12T09:14:28.571Z,4.83
2018-09-12T09:17:03.844Z,4.28
2018-09-12T09:19:37.948Z,6.75
2018-09-12T09:22:12.200Z,6.37
2018-09-12T09:24:46.480Z,7.92
2018-09-12T09:27:21.216Z,4.85
2018-09-12T09:29:55.281Z,4.92
2018-09-12T09:32:30.550Z,7.17
2018-09-12T09:35:06.110Z,7.87
2018-09-12T09:37:40.488Z,7.12
2018-09-12T09:40:15.216Z,7.80
2018-09-12T09:42:49.397Z,5.42
2018-09-12T09:45:23.483Z,5.40
2018-09-12T09:47:57.857Z,5.97
2018-09-12T09:50:32.677Z,5.90
2018-09-12T09:53:07.035Z,4.12
2018-09-12T09:55:41.803Z,5.20
2018-09-12T09:58:16.005Z,3.40
2018-09-12T10:00:55.624Z,4.03
2018-09-12T10:03:35.881Z,5.28
2018-09-12T10:06:16.071Z,6.12
2018-09-12T10:08:55.671Z,3.87
2018-09-12T10:11:30.503Z,5.20
2018-09-12T10:14:05.241Z,3.98
2018-09-12T10:16:39.285Z,6.70
2018-09-12T10:19:13.311Z,6.05
2018-09-12T10:21:47.210Z,4.03
2018-09-12T10:24:28.532Z,5.90
2018-09-12T10:27:02.613Z,3.95
2018-09-12T10:29:37.079Z,4.65
2018-09-12T10:32:12.308Z,4.22
2018-09-12T10:34:46.394Z,3.15
2018-09-12T10:37:20.316Z,5.70
2018-09-12T10:39:54.609Z,3.62
2018-09-12T10:42:28.825Z,4.53
2018-09-12T10:45:03.841Z,7.25
2018-09-12T10:47:38.039Z,4.12
2018-09-12T10:50:12.087Z,3.83
2018-09-12T10:52:46.477Z,3.25
2018-09-12T10:55:20.727Z,5.67
2018-09-12T10:57:54.930Z,3.12
2018-09-12T11:00:29.542Z,5.80
2018-09-12T11:03:03.558Z,7.17
2018-09-12T11:05:37.959Z,4.85
2018-09-12T11:08:12.793Z,4.28
2018-09-12T11:10:47.936Z,3.25
2018-09-12T11:13:21.842Z,3.47
2018-09-12T11:15:55.900Z,5.65
2018-09-12T11:18:30.960Z,4.35
2018-09-12T11:21:04.800Z,3.92
2018-09-12T11:23:38.576Z,5.25
2018-09-12T11:26:13.171Z,3.70
2018-09-12T11:28:47.405Z,3.22
2018-09-12T11:31:21.535Z,3.87
2018-09-12T11:33:55.848Z,4.62
2018-09-12T11:36:30.037Z,5.08
2018-09-12T11:39:06.805Z,3.45
2018-09-12T11:41:41.813Z,8.08
2018-09-12T11:44:15.940Z,4.15
2018-09-12T11:46:49.964Z,3.47
2018-09-12T11:49:24.102Z,6.33
2018-09-12T11:51:58.291Z,5.62
2018-09-12T11:54:32.424Z,5.70
2018-09-12T11:57:06.452Z,3.35
2018-09-12T11:59:40.523Z,3.67
2018-09-12T12:02:14.871Z,4.67
2018-09-12T12:04:49.035Z,3.40
2018-09-12T12:07:23.465Z,6.42
2018-09-12T12:09:59.090Z,4.65
2018-09-12T12:12:33.219Z,4.17
2018-09-12T12:15:07.863Z,3.65
2018-09-12T12:17:42.097Z,3.42
2018-09-12T12:20:16.605Z,4.42
2018-09-12T12:22:50.510Z,4.65
2018-09-12T12:25:25.386Z,3.80
2018-09-12T12:27:59.205Z,4.20
2018-09-12T12:30:33.629Z,5.45
2018-09-12T12:33:09.923Z,5.95
2018-09-12T12:35:44.873Z,5.10
2018-09-12T12:38:18.713Z,6.17
2018-09-12T12:40:52.626Z,6.37
2018-09-12T12:43:27.980Z,6.28
2018-09-12T12:46:02.095Z,6.33
2018-09-12T12:48:37.459Z,6.33
2018-09-12T12:51:11.299Z,6.80
2018-09-12T12:53:46.316Z,6.65
2018-09-12T12:56:20.464Z,9.53
2018-09-12T12:58:54.552Z,10.00
2018-09-12T13:01:28.896Z,10.03
2018-09-12T13:04:02.659Z,7.87
2018-09-12T13:06:36.845Z,7.33
2018-09-12T13:09:11.855Z,7.42
2018-09-12T13:11:46.926Z,6.95
2018-09-12T13:14:21.533Z,6.95
2018-09-12T13:16:55.488Z,7.78
2018-09-12T13:19:29.281Z,8.03
2018-09-12T13:22:03.375Z,8.98
2018-09-12T13:24:38.759Z,8.43
2018-09-12T13:27:12.854Z,7.67
2018-09-12T13:29:47.605Z,8.05
2018-09-12T13:32:21.858Z,7.15
2018-09-12T13:34:56.125Z,7.35
2018-09-12T13:37:31.206Z,7.25
2018-09-12T13:40:05.579Z,8.68
2018-09-12T13:42:39.751Z,7.00
2018-09-12T13:45:13.821Z,6.55
2018-09-12T13:47:48.483Z,8.38
2018-09-12T13:50:22.495Z,6.03
2018-09-12T13:52:56.756Z,5.78
2018-09-12T13:55:30.906Z,8.63
2018-09-12T13:58:05.028Z,7.55
2018-09-12T14:00:39.060Z,6.72
2018-09-12T14:03:13.254Z,10.25
2018-09-12T14:05:48.183Z,7.47
2018-09-12T14:08:24.991Z,8.78
2018-09-12T14:11:00.051Z,5.70
2018-09-12T14:13:34.293Z,5.83
2018-09-12T14:16:08.536Z,7.00
2018-09-12T14:18:42.485Z,5.53
2018-09-12T14:21:17.052Z,9.08
2018-09-12T14:23:52.020Z,4.97
2018-09-12T14:26:26.509Z,6.78
2018-09-12T14:29:01.674Z,6.75
2018-09-12T14:31:36.756Z,8.10
2018-09-12T14:34:11.966Z,7.35
2018-09-12T14:36:46.545Z,7.53
2018-09-12T14:39:20.861Z,8.18
2018-09-12T14:41:54.723Z,9.65
2018-09-12T14:44:28.899Z,7.83
2018-09-12T14:47:03.255Z,8.80
2018-09-12T14:49:37.441Z,7.30
2018-09-12T14:52:12.446Z,6.70
2018-09-12T14:54:47.785Z,6.37
2018-09-12T14:57:22.636Z,11.68
2018-09-12T14:59:57.326Z,8.15
2018-09-12T15:02:31.166Z,8.55
2018-09-12T15:05:05.626Z,6.75
2018-09-12T15:07:39.703Z,6.67
2018-09-12T15:10:14.824Z,7.37
2018-09-12T15:12:48.980Z,6.80
2018-09-12T15:15:24.335Z,7.15
2018-09-12T15:17:58.703Z,7.45
2018-09-12T15:20:33.143Z,6.40
2018-09-12T15:23:07.133Z,7.62
2018-09-12T15:25:41.578Z,8.48
2018-09-12T15:28:16.027Z,6.45
2018-09-12T15:30:50.319Z,8.13
2018-09-12T15:33:24.340Z,5.80
2018-09-12T15:35:58.428Z,6.65
2018-09-12T15:38:33.128Z,4.37
2018-09-12T15:41:07.962Z,5.70
2018-09-12T15:43:42.241Z,4.92
2018-09-12T15:46:16.989Z,5.37
2018-09-12T15:48:51.357Z,5.12
2018-09-12T15:51:25.257Z,5.45
2018-09-12T15:53:59.753Z,2.87
2018-09-12T15:56:34.909Z,4.58
2018-09-12T15:59:10.023Z,4.10
2018-09-12T16:01:44.118Z,5.25
2018-09-12T16:04:18.248Z,5.20
2018-09-12T16:06:53.040Z,3.65
2018-09-12T16:09:28.518Z,3.75
2018-09-12T16:12:04.140Z,6.60
2018-09-12T16:14:39.290Z,4.78
2018-09-12T16:17:13.260Z,7.17
2018-09-12T16:19:47.617Z,4.97
2018-09-12T16:22:21.821Z,6.42
2018-09-12T16:24:56.167Z,6.08
2018-09-12T16:27:30.745Z,6.62
2018-09-12T16:30:05.822Z,5.75
2018-09-12T16:32:40.710Z,3.77
2018-09-12T16:35:14.959Z,4.70
2018-09-12T16:37:49.345Z,2.65
2018-09-12T16:40:23.418Z,3.62
2018-09-12T16:42:57.765Z,5.25
2018-09-12T16:45:32.423Z,2.50
2018-09-12T16:48:06.593Z,2.65
2018-09-12T16:50:41.052Z,3.20
2018-09-12T16:53:15.368Z,3.15
2018-09-12T16:55:50.109Z,1.90
2018-09-12T16:58:24.319Z,3.05
2018-09-12T17:00:59.151Z,4.65
2018-09-12T17:03:33.610Z,2.85
2018-09-12T17:06:09.070Z,2.42
2018-09-12T17:08:44.308Z,4.50
2018-09-12T17:11:18.474Z,2.55
2018-09-12T17:13:52.553Z,2.75
2018-09-12T17:18:47.774Z,2.52
2018-09-12T17:21:21.889Z,3.72
2018-09-12T17:23:55.920Z,3.25
2018-09-12T17:26:31.107Z,3.33
2018-09-12T17:29:05.499Z,2.30
2018-09-12T17:31:39.709Z,2.72
2018-09-12T17:34:13.998Z,2.95
2018-09-12T17:36:48.544Z,2.37
2018-09-12T17:39:22.657Z,2.35
2018-09-12T17:41:57.680Z,4.08
2018-09-12T17:44:31.654Z,1.92
2018-09-12T17:47:05.881Z,3.08
2018-09-12T17:49:40.025Z,3.00
2018-09-12T17:52:15.101Z,4.00
2018-09-12T17:54:49.226Z,2.72
2018-09-12T17:57:23.534Z,2.67
2018-09-12T18:00:04.455Z,5.53
2018-09-12T18:02:38.970Z,4.50
2018-09-12T18:05:12.940Z,2.45
2018-09-12T18:07:48.275Z,3.65
2018-09-12T18:10:22.555Z,4.17
2018-09-12T18:12:56.654Z,5.42
2018-09-12T18:15:31.535Z,3.00
2018-09-12T18:18:06.985Z,3.67
2018-09-12T18:20:44.649Z,4.62
2018-09-12T18:23:18.963Z,5.87
2018-09-12T18:25:53.295Z,4.00
2018-09-12T18:28:28.370Z,3.70
2018-09-12T18:31:02.634Z,4.27
2018-09-12T18:33:37.161Z,3.00
2018-09-12T18:36:11.495Z,3.47
2018-09-12T18:38:46.338Z,5.10
2018-09-12T18:41:20.996Z,3.10
2018-09-12T18:43:55.864Z,4.97
2018-09-12T18:46:30.530Z,5.75
2018-09-12T18:49:04.839Z,4.10
2018-09-12T18:51:39.626Z,5.37
2018-09-12T18:54:13.972Z,6.58
2018-09-12T18:56:48.955Z,4.20
2018-09-12T18:59:23.293Z,3.17
2018-09-12T19:01:57.415Z,4.85
2018-09-12T19:04:31.500Z,4.30
2018-09-12T19:07:06.233Z,5.55
2018-09-12T19:09:41.009Z,4.40
2018-09-12T19:12:15.514Z,6.37
2018-09-12T19:14:49.641Z,6.03
2018-09-12T19:17:24.304Z,4.95
2018-09-12T19:19:59.308Z,4.22
2018-09-12T19:22:33.864Z,7.00
2018-09-12T19:25:08.576Z,6.15
2018-09-12T19:27:43.001Z,7.37
2018-09-12T19:30:18.022Z,7.17
2018-09-12T19:32:52.300Z,6.83
2018-09-12T19:35:27.245Z,7.33
2018-09-12T19:38:01.375Z,8.70
2018-09-12T19:40:36.591Z,8.40
2018-09-12T19:43:11.316Z,7.07
2018-09-12T19:45:45.671Z,8.28
2018-09-12T19:48:19.965Z,9.23
2018-09-12T19:50:54.315Z,9.17
2018-09-12T19:53:28.739Z,9.47
2018-09-12T19:56:03.069Z,8.13
2018-09-12T19:58:37.910Z,6.83
2018-09-12T20:01:12.245Z,7.57
2018-09-12T20:03:47.486Z,7.17
2018-09-12T20:06:22.307Z,9.18
2018-09-12T20:08:56.376Z,7.73
2018-09-12T20:11:30.622Z,7.90
2018-09-12T20:14:05.315Z,6.80
2018-09-12T20:16:40.108Z,7.58
2018-09-12T20:19:15.354Z,8.35
2018-09-12T20:21:50.167Z,7.70
2018-09-12T20:24:24.166Z,7.53
2018-09-12T20:26:58.602Z,8.27
2018-09-12T20:29:32.970Z,7.50
2018-09-12T20:32:07.208Z,7.17
2018-09-12T20:34:42.438Z,28.90
2018-09-12T20:37:17.033Z,8.73
2018-09-12T20:39:51.047Z,9.43
2018-09-12T20:42:26.256Z,8.33
2018-09-12T20:45:01.251Z,7.73
2018-09-12T20:47:36.022Z,7.30
2018-09-12T20:50:10.766Z,8.65
2018-09-12T20:52:45.966Z,9.07
2018-09-12T20:55:20.646Z,9.43
2018-09-12T20:57:54.664Z,9.43
2018-09-12T21:00:28.733Z,9.77
2018-09-12T21:03:03.220Z,11.40
2018-09-12T21:05:37.634Z,10.30
2018-09-12T21:08:11.620Z,12.43
2018-09-12T21:10:45.797Z,10.67
2018-09-12T21:13:20.258Z,10.70
2018-09-12T21:15:55.566Z,10.40
2018-09-12T21:18:29.921Z,12.33
2018-09-12T21:21:04.764Z,12.30
2018-09-12T21:23:38.978Z,11.33
2018-09-12T21:26:13.175Z,11.43
2018-09-12T21:28:47.428Z,13.43
2018-09-12T21:31:21.442Z,12.00
2018-09-12T21:33:55.538Z,12.00
2018-09-12T21:36:37.300Z,11.60
2018-09-12T21:39:11.389Z,12.95
2018-09-12T21:41:45.300Z,14.40
2018-09-12T21:44:19.554Z,16.60
2018-09-12T21:46:53.849Z,14.20
2018-09-12T21:49:28.296Z,16.03
2018-09-12T21:52:02.463Z,14.83
2018-09-12T21:54:37.374Z,13.57
2018-09-12T21:57:11.598Z,12.13
2018-09-12T21:59:46.857Z,11.30
2018-09-12T22:02:21.690Z,12.70
2018-09-12T22:04:56.479Z,11.17
2018-09-12T22:07:31.413Z,14.33
2018-09-12T22:10:05.418Z,11.67
2018-09-12T22:12:39.479Z,14.20
2018-09-12T22:15:13.819Z,18.40
2018-09-12T22:17:47.993Z,16.40
2018-09-12T22:20:22.836Z,15.67
2018-09-12T22:22:56.807Z,19.20
2018-09-12T22:25:31.028Z,18.15
2018-09-12T22:28:05.603Z,18.60
2018-09-12T22:30:41.075Z,18.02
2018-09-12T22:33:15.262Z,16.90
2018-09-12T22:35:49.232Z,18.10
2018-09-12T22:38:23.684Z,16.60
2018-09-12T22:40:57.702Z,17.07
2018-09-12T22:43:31.813Z,16.67
2018-09-12T22:46:06.224Z,16.27
2018-09-12T22:48:41.944Z,14.83
2018-09-12T22:51:16.658Z,11.57
2018-09-12T22:53:50.930Z,13.20
2018-09-12T22:56:25.628Z,18.03
2018-09-12T22:58:59.545Z,14.60
2018-09-12T23:01:34.172Z,13.67
2018-09-12T23:04:09.443Z,15.87
2018-09-12T23:06:43.582Z,16.40
2018-09-12T23:09:17.576Z,15.07
2018-09-12T23:11:58.407Z,18.17
2018-09-12T23:14:33.318Z,19.33
2018-09-12T23:17:07.747Z,15.63
2018-09-12T23:19:41.598Z,17.80
2018-09-12T23:22:15.806Z,16.93
2018-09-12T23:24:50.047Z,16.13
2018-09-12T23:27:24.603Z,15.97
2018-09-12T23:29:59.027Z,16.13
2018-09-12T23:32:33.133Z,14.00
2018-09-12T23:35:07.135Z,17.93
2018-09-12T23:37:41.608Z,14.83
2018-09-12T23:40:16.441Z,15.93
2018-09-12T23:42:50.489Z,13.47
2018-09-12T23:45:24.800Z,14.40
2018-09-12T23:48:00.283Z,14.13
2018-09-12T23:50:34.366Z,12.10
2018-09-12T23:53:08.712Z,12.93
2018-09-12T23:55:42.793Z,13.93
2018-09-12T23:58:17.019Z,16.67
